RYR7366 LOWW-EIDW
Flight info
| Callsign | RYR7366 |
|---|---|
| Flight time | 2h 18m |
| Altitude | 36000 |
| Route | BUWUT DCT DITIS DCT VARIK DCT KATCE DCT RKN L602 SPY DCT RAVLO Y70 OTBED L60 PENIL UL28 DANDI L28 LELDO M145 BAGSO BAGSO4L |
| Aircraft | A320/M-SDE3FGHIRWY/LB1 |
Departure
| Time | 2026-04-23 04:47 |
|---|---|
| Airport | Vienna International Airport (LOWW) |
Arrival
| Time | 2026-04-23 07:05 |
|---|---|
| Airport | Dublin Airport (EIDW) |
| Time | Latitude | Longitude | Altitude | Speed | Heading |
|---|---|---|---|---|---|
| 2026-04-23 04:19 | 48.11938 | 16.55800 | 609 ft | 0 kts | 296° |
| 2026-04-23 04:37 | 48.11929 | 16.55826 | 622 ft | 3 kts | 292° |
| 2026-04-23 04:37 | 48.11921 | 16.55859 | 618 ft | 3 kts | 285° |
| 2026-04-23 04:37 | 48.11917 | 16.55893 | 622 ft | 3 kts | 265° |
| 2026-04-23 04:38 | 48.11923 | 16.55921 | 618 ft | 3 kts | 212° |
| 2026-04-23 04:38 | 48.11926 | 16.55924 | 617 ft | 0 kts | 206° |
| 2026-04-23 04:41 | 48.11921 | 16.55920 | 609 ft | 4 kts | 206° |
| 2026-04-23 04:41 | 48.11871 | 16.55884 | 619 ft | 9 kts | 206° |
| 2026-04-23 04:41 | 48.11819 | 16.55846 | 612 ft | 9 kts | 206° |
| 2026-04-23 04:42 | 48.11760 | 16.55803 | 620 ft | 10 kts | 206° |
| 2026-04-23 04:42 | 48.11694 | 16.55800 | 612 ft | 14 kts | 140° |
| 2026-04-23 04:42 | 48.11640 | 16.55950 | 614 ft | 16 kts | 116° |
| 2026-04-23 04:42 | 48.11593 | 16.56095 | 614 ft | 15 kts | 116° |
| 2026-04-23 04:43 | 48.11544 | 16.56245 | 620 ft | 17 kts | 116° |
| 2026-04-23 04:43 | 48.11495 | 16.56394 | 614 ft | 15 kts | 116° |
| 2026-04-23 04:43 | 48.11445 | 16.56548 | 612 ft | 20 kts | 116° |
| 2026-04-23 04:43 | 48.11371 | 16.56775 | 620 ft | 26 kts | 115° |
| 2026-04-23 04:44 | 48.11295 | 16.57011 | 612 ft | 25 kts | 116° |
| 2026-04-23 04:44 | 48.11222 | 16.57233 | 615 ft | 23 kts | 115° |
| 2026-04-23 04:44 | 48.11156 | 16.57437 | 609 ft | 21 kts | 116° |
| 2026-04-23 04:44 | 48.11107 | 16.57587 | 614 ft | 7 kts | 115° |
| 2026-04-23 04:45 | 48.11082 | 16.57642 | 609 ft | 6 kts | 141° |
| 2026-04-23 04:45 | 48.11040 | 16.57645 | 609 ft | 7 kts | 205° |
| 2026-04-23 04:45 | 48.10992 | 16.57611 | 609 ft | 11 kts | 206° |
| 2026-04-23 04:45 | 48.10933 | 16.57561 | 614 ft | 6 kts | 219° |
| 2026-04-23 04:46 | 48.10919 | 16.57519 | 611 ft | 4 kts | 271° |
| 2026-04-23 04:46 | 48.10926 | 16.57500 | 617 ft | 0 kts | 296° |
| 2026-04-23 04:46 | 48.10934 | 16.57473 | 613 ft | 21 kts | 296° |
| 2026-04-23 04:46 | 48.11115 | 16.56917 | 609 ft | 94 kts | 296° |
| 2026-04-23 04:47 | 48.11490 | 16.55764 | 618 ft | 149 kts | 296° |
| 2026-04-23 04:47 | 48.11948 | 16.54345 | 1114 ft | 155 kts | 294° |
| 2026-04-23 04:47 | 48.12078 | 16.52718 | 1841 ft | 164 kts | 272° |
| 2026-04-23 04:47 | 48.11917 | 16.50945 | 2361 ft | 181 kts | 271° |
| 2026-04-23 04:48 | 48.11738 | 16.49005 | 2840 ft | 195 kts | 270° |
| 2026-04-23 04:48 | 48.11598 | 16.46891 | 3258 ft | 213 kts | 279° |
| 2026-04-23 04:48 | 48.11782 | 16.44590 | 3693 ft | 234 kts | 284° |
| 2026-04-23 04:48 | 48.12060 | 16.42097 | 4333 ft | 249 kts | 284° |
| 2026-04-23 04:49 | 48.12353 | 16.39513 | 5238 ft | 254 kts | 284° |
| 2026-04-23 04:49 | 48.12646 | 16.36892 | 6166 ft | 258 kts | 284° |
| 2026-04-23 04:49 | 48.12935 | 16.34225 | 7056 ft | 262 kts | 283° |
| 2026-04-23 04:49 | 48.13224 | 16.31547 | 7877 ft | 267 kts | 284° |
| 2026-04-23 04:50 | 48.13519 | 16.28772 | 8698 ft | 273 kts | 284° |
| 2026-04-23 04:50 | 48.13820 | 16.25930 | 9510 ft | 279 kts | 285° |
| 2026-04-23 04:50 | 48.14365 | 16.23150 | 10292 ft | 278 kts | 301° |
| 2026-04-23 04:50 | 48.15405 | 16.20712 | 10929 ft | 283 kts | 316° |
| 2026-04-23 04:51 | 48.16934 | 16.18754 | 11179 ft | 299 kts | 333° |
| 2026-04-23 04:51 | 48.18841 | 16.17331 | 11600 ft | 312 kts | 338° |
| 2026-04-23 04:51 | 48.20823 | 16.15899 | 12283 ft | 319 kts | 338° |
| 2026-04-23 04:51 | 48.22832 | 16.14425 | 13036 ft | 324 kts | 338° |
| 2026-04-23 04:52 | 48.24842 | 16.12938 | 13769 ft | 329 kts | 338° |
| 2026-04-23 04:52 | 48.26905 | 16.11404 | 14442 ft | 334 kts | 338° |
| 2026-04-23 04:52 | 48.28996 | 16.09845 | 15111 ft | 337 kts | 338° |
| 2026-04-23 04:52 | 48.31107 | 16.08270 | 15790 ft | 340 kts | 338° |
| 2026-04-23 04:53 | 48.33231 | 16.06684 | 16440 ft | 343 kts | 338° |
| 2026-04-23 04:53 | 48.35377 | 16.05083 | 17103 ft | 346 kts | 338° |
| 2026-04-23 04:53 | 48.37542 | 16.03468 | 17756 ft | 349 kts | 338° |
| 2026-04-23 04:53 | 48.39730 | 16.01840 | 18403 ft | 352 kts | 338° |
| 2026-04-23 04:54 | 48.41936 | 16.00196 | 18957 ft | 356 kts | 338° |
| 2026-04-23 04:54 | 48.44168 | 15.98529 | 19489 ft | 360 kts | 338° |
| 2026-04-23 04:54 | 48.46394 | 15.96862 | 20025 ft | 364 kts | 338° |
| 2026-04-23 04:54 | 48.48673 | 15.95154 | 20572 ft | 368 kts | 338° |
| 2026-04-23 04:55 | 48.50977 | 15.93425 | 21111 ft | 372 kts | 338° |
| 2026-04-23 04:55 | 48.53309 | 15.91677 | 21659 ft | 376 kts | 339° |
| 2026-04-23 04:55 | 48.55596 | 15.89676 | 22176 ft | 386 kts | 329° |
| 2026-04-23 04:55 | 48.57644 | 15.86982 | 22690 ft | 397 kts | 318° |
| 2026-04-23 04:56 | 48.59367 | 15.83647 | 23180 ft | 408 kts | 309° |
| 2026-04-23 04:56 | 48.60971 | 15.80086 | 23661 ft | 412 kts | 310° |
| 2026-04-23 04:56 | 48.62573 | 15.76533 | 24072 ft | 416 kts | 310° |
| 2026-04-23 04:56 | 48.64207 | 15.72905 | 24469 ft | 420 kts | 310° |
| 2026-04-23 04:57 | 48.65856 | 15.69243 | 24865 ft | 423 kts | 310° |
| 2026-04-23 04:57 | 48.67515 | 15.65548 | 25271 ft | 426 kts | 310° |
| 2026-04-23 04:57 | 48.69184 | 15.61829 | 25675 ft | 428 kts | 309° |
| 2026-04-23 04:57 | 48.70771 | 15.57992 | 26057 ft | 434 kts | 304° |
| 2026-04-23 04:58 | 48.72240 | 15.53981 | 26429 ft | 437 kts | 304° |
| 2026-04-23 04:58 | 48.73714 | 15.49948 | 26811 ft | 439 kts | 304° |
| 2026-04-23 04:58 | 48.75199 | 15.45882 | 27180 ft | 442 kts | 304° |
| 2026-04-23 04:58 | 48.76670 | 15.41855 | 27508 ft | 445 kts | 304° |
| 2026-04-23 04:59 | 48.78174 | 15.37734 | 27833 ft | 448 kts | 304° |
| 2026-04-23 04:59 | 48.79686 | 15.33580 | 28191 ft | 451 kts | 304° |
| 2026-04-23 04:59 | 48.81339 | 15.29554 | 28528 ft | 448 kts | 311° |
| 2026-04-23 04:59 | 48.83171 | 15.25713 | 28853 ft | 451 kts | 311° |
| 2026-04-23 05:00 | 48.85010 | 15.21840 | 29179 ft | 453 kts | 311° |
| 2026-04-23 05:00 | 48.86855 | 15.17945 | 29514 ft | 456 kts | 311° |
| 2026-04-23 05:00 | 48.88708 | 15.14015 | 29824 ft | 458 kts | 311° |
| 2026-04-23 05:00 | 48.90544 | 15.10131 | 30117 ft | 460 kts | 312° |
| 2026-04-23 05:01 | 48.92489 | 15.06264 | 30387 ft | 461 kts | 314° |
| 2026-04-23 05:01 | 48.94512 | 15.02477 | 30579 ft | 463 kts | 315° |
| 2026-04-23 05:01 | 48.96590 | 14.98710 | 30805 ft | 465 kts | 316° |
| 2026-04-23 05:01 | 48.98679 | 14.94941 | 31030 ft | 467 kts | 316° |
| 2026-04-23 05:02 | 49.00765 | 14.91136 | 31251 ft | 469 kts | 315° |
| 2026-04-23 05:02 | 49.02838 | 14.87294 | 31546 ft | 469 kts | 315° |
| 2026-04-23 05:02 | 49.04888 | 14.83442 | 31860 ft | 468 kts | 314° |
| 2026-04-23 05:02 | 49.06896 | 14.79636 | 32164 ft | 467 kts | 314° |
| 2026-04-23 05:03 | 49.08929 | 14.75770 | 32467 ft | 467 kts | 314° |
| 2026-04-23 05:03 | 49.10958 | 14.71904 | 32759 ft | 467 kts | 314° |
| 2026-04-23 05:03 | 49.12991 | 14.68035 | 33003 ft | 468 kts | 314° |
| 2026-04-23 05:03 | 49.15033 | 14.64154 | 33270 ft | 469 kts | 314° |
| 2026-04-23 05:04 | 49.17075 | 14.60271 | 33548 ft | 469 kts | 314° |
| 2026-04-23 05:04 | 49.19115 | 14.56388 | 33854 ft | 469 kts | 314° |
| 2026-04-23 05:04 | 49.21154 | 14.52501 | 34158 ft | 468 kts | 314° |
| 2026-04-23 05:04 | 49.23191 | 14.48615 | 34437 ft | 468 kts | 314° |
| 2026-04-23 05:05 | 49.25202 | 14.44779 | 34696 ft | 468 kts | 314° |
| 2026-04-23 05:05 | 49.27235 | 14.40894 | 34956 ft | 468 kts | 314° |
| 2026-04-23 05:05 | 49.29267 | 14.37001 | 35218 ft | 467 kts | 314° |
| 2026-04-23 05:05 | 49.31291 | 14.33116 | 35435 ft | 467 kts | 314° |
| 2026-04-23 05:06 | 49.33314 | 14.29224 | 35675 ft | 467 kts | 314° |
| 2026-04-23 05:06 | 49.35334 | 14.25330 | 35926 ft | 466 kts | 314° |
| 2026-04-23 05:06 | 49.37350 | 14.21440 | 36161 ft | 466 kts | 314° |
| 2026-04-23 05:06 | 49.39367 | 14.17549 | 36280 ft | 465 kts | 314° |
| 2026-04-23 05:07 | 49.43352 | 14.09836 | 36294 ft | 464 kts | 313° |
| 2026-04-23 05:07 | 49.47351 | 14.02073 | 36295 ft | 463 kts | 313° |
| 2026-04-23 05:08 | 49.51353 | 13.94288 | 36293 ft | 465 kts | 313° |
| 2026-04-23 05:08 | 49.55358 | 13.86465 | 36299 ft | 465 kts | 313° |
| 2026-04-23 05:09 | 49.59329 | 13.78686 | 36299 ft | 465 kts | 313° |
| 2026-04-23 05:09 | 49.63322 | 13.70845 | 36318 ft | 464 kts | 313° |
| 2026-04-23 05:10 | 49.67303 | 13.63001 | 36327 ft | 464 kts | 313° |
| 2026-04-23 05:10 | 49.71271 | 13.55162 | 36310 ft | 463 kts | 313° |
| 2026-04-23 05:11 | 49.75203 | 13.47369 | 36324 ft | 463 kts | 313° |
| 2026-04-23 05:11 | 49.79149 | 13.39506 | 36328 ft | 462 kts | 313° |
| 2026-04-23 05:12 | 49.83092 | 13.31645 | 36325 ft | 462 kts | 313° |
| 2026-04-23 05:12 | 49.87029 | 13.23781 | 36326 ft | 462 kts | 313° |
| 2026-04-23 05:13 | 49.90966 | 13.15909 | 36305 ft | 462 kts | 313° |
| 2026-04-23 05:14 | 49.96830 | 13.04103 | 36294 ft | 463 kts | 313° |
| 2026-04-23 05:14 | 50.00749 | 12.96172 | 36300 ft | 463 kts | 312° |
| 2026-04-23 05:15 | 50.04667 | 12.88222 | 36302 ft | 463 kts | 312° |
| 2026-04-23 05:15 | 50.08583 | 12.80258 | 36283 ft | 464 kts | 312° |
| 2026-04-23 05:16 | 50.12470 | 12.72329 | 36293 ft | 464 kts | 312° |
| 2026-04-23 05:16 | 50.16387 | 12.64326 | 36301 ft | 464 kts | 312° |
| 2026-04-23 05:17 | 50.20300 | 12.56302 | 36307 ft | 465 kts | 312° |
| 2026-04-23 05:17 | 50.24204 | 12.48261 | 36297 ft | 465 kts | 311° |
| 2026-04-23 05:18 | 50.28081 | 12.40254 | 36317 ft | 465 kts | 311° |
| 2026-04-23 05:18 | 50.32000 | 12.32191 | 36328 ft | 466 kts | 312° |
| 2026-04-23 05:19 | 50.35951 | 12.24145 | 36339 ft | 466 kts | 312° |
| 2026-04-23 05:19 | 50.39898 | 12.16104 | 36328 ft | 466 kts | 312° |
| 2026-04-23 05:20 | 50.43839 | 12.08012 | 36323 ft | 466 kts | 311° |
| 2026-04-23 05:20 | 50.47736 | 11.99954 | 36327 ft | 467 kts | 311° |
| 2026-04-23 05:21 | 50.51662 | 11.91830 | 36329 ft | 467 kts | 311° |
| 2026-04-23 05:21 | 50.55593 | 11.83683 | 36334 ft | 468 kts | 311° |
| 2026-04-23 05:22 | 50.59516 | 11.75527 | 36343 ft | 468 kts | 311° |
| 2026-04-23 05:22 | 50.63403 | 11.67408 | 36333 ft | 468 kts | 311° |
| 2026-04-23 05:23 | 50.67317 | 11.59218 | 36338 ft | 468 kts | 311° |
| 2026-04-23 05:23 | 50.71228 | 11.51001 | 36340 ft | 468 kts | 311° |
| 2026-04-23 05:24 | 50.75135 | 11.42773 | 36347 ft | 469 kts | 311° |
| 2026-04-23 05:24 | 50.79012 | 11.34572 | 36335 ft | 469 kts | 310° |
| 2026-04-23 05:25 | 50.82914 | 11.26291 | 36334 ft | 470 kts | 310° |
| 2026-04-23 05:25 | 50.86813 | 11.17991 | 36340 ft | 470 kts | 310° |
| 2026-04-23 05:26 | 50.90717 | 11.09665 | 36343 ft | 471 kts | 310° |
| 2026-04-23 05:26 | 50.94587 | 11.01379 | 36347 ft | 471 kts | 310° |
| 2026-04-23 05:27 | 50.98481 | 10.93016 | 36351 ft | 471 kts | 310° |
| 2026-04-23 05:27 | 51.02372 | 10.84633 | 36347 ft | 472 kts | 310° |
| 2026-04-23 05:28 | 51.06261 | 10.76227 | 36349 ft | 472 kts | 310° |
| 2026-04-23 05:28 | 51.10149 | 10.67806 | 36338 ft | 472 kts | 309° |
| 2026-04-23 05:29 | 51.14002 | 10.59427 | 36349 ft | 472 kts | 309° |
| 2026-04-23 05:29 | 51.17867 | 10.50982 | 36351 ft | 472 kts | 309° |
| 2026-04-23 05:30 | 51.21080 | 10.43943 | 36352 ft | 472 kts | 309° |
| 2026-04-23 05:30 | 51.24857 | 10.35357 | 36352 ft | 475 kts | 302° |
| 2026-04-23 05:31 | 51.28029 | 10.24132 | 36357 ft | 478 kts | 295° |
| 2026-04-23 05:31 | 51.30613 | 10.14333 | 36365 ft | 479 kts | 295° |
| 2026-04-23 05:32 | 51.32765 | 10.06186 | 36361 ft | 479 kts | 295° |
| 2026-04-23 05:32 | 51.35352 | 9.96362 | 36364 ft | 479 kts | 295° |
| 2026-04-23 05:33 | 51.37923 | 9.86514 | 36371 ft | 480 kts | 294° |
| 2026-04-23 05:33 | 51.40481 | 9.76649 | 36354 ft | 479 kts | 294° |
| 2026-04-23 05:34 | 51.43021 | 9.66854 | 36363 ft | 479 kts | 294° |
| 2026-04-23 05:34 | 51.45568 | 9.56985 | 36371 ft | 480 kts | 294° |
| 2026-04-23 05:35 | 51.48104 | 9.47079 | 36372 ft | 480 kts | 294° |
| 2026-04-23 05:35 | 51.50636 | 9.37163 | 36375 ft | 480 kts | 294° |
| 2026-04-23 05:36 | 51.53164 | 9.27234 | 36371 ft | 481 kts | 294° |
| 2026-04-23 05:36 | 51.55669 | 9.17359 | 36381 ft | 481 kts | 294° |
| 2026-04-23 05:37 | 51.58184 | 9.07402 | 36393 ft | 481 kts | 294° |
| 2026-04-23 05:37 | 51.60683 | 8.97423 | 36402 ft | 481 kts | 293° |
| 2026-04-23 05:38 | 51.63168 | 8.87428 | 36409 ft | 481 kts | 293° |
| 2026-04-23 05:38 | 51.65644 | 8.77495 | 36414 ft | 481 kts | 294° |
| 2026-04-23 05:39 | 51.68135 | 8.67484 | 36416 ft | 482 kts | 293° |
| 2026-04-23 05:39 | 51.70608 | 8.57440 | 36414 ft | 482 kts | 293° |
| 2026-04-23 05:40 | 51.73068 | 8.47388 | 36412 ft | 482 kts | 293° |
| 2026-04-23 05:40 | 51.75507 | 8.37401 | 36398 ft | 482 kts | 292° |
| 2026-04-23 05:41 | 51.77958 | 8.27331 | 36413 ft | 482 kts | 292° |
| 2026-04-23 05:41 | 51.80392 | 8.17256 | 36413 ft | 482 kts | 292° |
| 2026-04-23 05:42 | 51.82829 | 8.07175 | 36411 ft | 482 kts | 292° |
| 2026-04-23 05:42 | 51.85254 | 7.97075 | 36419 ft | 482 kts | 292° |
| 2026-04-23 05:43 | 51.87646 | 7.87018 | 36421 ft | 482 kts | 292° |
| 2026-04-23 05:43 | 51.90054 | 7.76887 | 36430 ft | 483 kts | 292° |
| 2026-04-23 05:44 | 51.92461 | 7.66733 | 36428 ft | 483 kts | 291° |
| 2026-04-23 05:44 | 51.94854 | 7.56560 | 36435 ft | 483 kts | 291° |
| 2026-04-23 05:45 | 51.97231 | 7.46442 | 36437 ft | 484 kts | 291° |
| 2026-04-23 05:45 | 51.99604 | 7.36227 | 36442 ft | 484 kts | 291° |
| 2026-04-23 05:46 | 52.01972 | 7.25995 | 36444 ft | 485 kts | 291° |
| 2026-04-23 05:46 | 52.04345 | 7.15743 | 36440 ft | 485 kts | 291° |
| 2026-04-23 05:47 | 52.06690 | 7.05543 | 36442 ft | 485 kts | 291° |
| 2026-04-23 05:47 | 52.09043 | 6.95257 | 36442 ft | 485 kts | 291° |
| 2026-04-23 05:48 | 52.11383 | 6.84968 | 36450 ft | 485 kts | 290° |
| 2026-04-23 05:48 | 52.13717 | 6.74657 | 36444 ft | 486 kts | 290° |
| 2026-04-23 05:49 | 52.16013 | 6.64398 | 36444 ft | 486 kts | 290° |
| 2026-04-23 05:49 | 52.18299 | 6.54044 | 36450 ft | 486 kts | 290° |
| 2026-04-23 05:50 | 52.20574 | 6.43679 | 36449 ft | 486 kts | 290° |
| 2026-04-23 05:50 | 52.22846 | 6.33303 | 36451 ft | 486 kts | 289° |
| 2026-04-23 05:51 | 52.25093 | 6.22966 | 36445 ft | 487 kts | 289° |
| 2026-04-23 05:51 | 52.27360 | 6.12552 | 36447 ft | 487 kts | 289° |
| 2026-04-23 05:52 | 52.29615 | 6.02133 | 36448 ft | 487 kts | 289° |
| 2026-04-23 05:52 | 52.31861 | 5.91691 | 36457 ft | 487 kts | 289° |
| 2026-04-23 05:53 | 52.34097 | 5.81237 | 36454 ft | 487 kts | 289° |
| 2026-04-23 05:53 | 52.36303 | 5.70850 | 36458 ft | 487 kts | 288° |
| 2026-04-23 05:54 | 52.38512 | 5.60370 | 36462 ft | 487 kts | 288° |
| 2026-04-23 05:54 | 52.40714 | 5.49895 | 36454 ft | 487 kts | 288° |
| 2026-04-23 05:55 | 52.42917 | 5.39411 | 36464 ft | 486 kts | 288° |
| 2026-04-23 05:55 | 52.45094 | 5.28966 | 36464 ft | 486 kts | 288° |
| 2026-04-23 05:56 | 52.47246 | 5.18532 | 36464 ft | 486 kts | 288° |
| 2026-04-23 05:56 | 52.49405 | 5.08026 | 36467 ft | 486 kts | 288° |
| 2026-04-23 05:57 | 52.51066 | 4.99931 | 36468 ft | 486 kts | 288° |
| 2026-04-23 05:57 | 52.51952 | 4.95605 | 36468 ft | 486 kts | 287° |
| 2026-04-23 05:58 | 52.53773 | 4.86690 | 36484 ft | 485 kts | 287° |
| 2026-04-23 05:58 | 52.55998 | 4.76309 | 36486 ft | 485 kts | 289° |
| 2026-04-23 05:59 | 52.58422 | 4.65957 | 36481 ft | 485 kts | 290° |
| 2026-04-23 05:59 | 52.60843 | 4.55604 | 36486 ft | 485 kts | 290° |
| 2026-04-23 06:00 | 52.63203 | 4.45221 | 36479 ft | 484 kts | 289° |
| 2026-04-23 06:00 | 52.65519 | 4.34889 | 36482 ft | 484 kts | 289° |
| 2026-04-23 06:01 | 52.67849 | 4.24483 | 36481 ft | 484 kts | 289° |
| 2026-04-23 06:01 | 52.70168 | 4.14059 | 36476 ft | 485 kts | 289° |
| 2026-04-23 06:02 | 52.72484 | 4.03612 | 36475 ft | 485 kts | 289° |
| 2026-04-23 06:02 | 52.74798 | 3.93157 | 36503 ft | 485 kts | 289° |
| 2026-04-23 06:03 | 52.77076 | 3.82775 | 36505 ft | 484 kts | 288° |
| 2026-04-23 06:03 | 52.79353 | 3.72324 | 36501 ft | 483 kts | 288° |
| 2026-04-23 06:04 | 52.81626 | 3.61874 | 36507 ft | 483 kts | 288° |
| 2026-04-23 06:04 | 52.83875 | 3.51503 | 36501 ft | 482 kts | 288° |
| 2026-04-23 06:05 | 52.86123 | 3.41071 | 36498 ft | 481 kts | 288° |
| 2026-04-23 06:05 | 52.88351 | 3.30649 | 36497 ft | 480 kts | 288° |
| 2026-04-23 06:06 | 52.90559 | 3.20234 | 36499 ft | 479 kts | 288° |
| 2026-04-23 06:06 | 52.92394 | 3.09664 | 36490 ft | 477 kts | 281° |
| 2026-04-23 06:07 | 52.93803 | 2.98994 | 36520 ft | 477 kts | 281° |
| 2026-04-23 06:07 | 52.95212 | 2.88267 | 36516 ft | 476 kts | 281° |
| 2026-04-23 06:08 | 52.96611 | 2.77548 | 36508 ft | 476 kts | 281° |
| 2026-04-23 06:08 | 52.98002 | 2.66822 | 36490 ft | 475 kts | 280° |
| 2026-04-23 06:09 | 52.99383 | 2.56093 | 36489 ft | 475 kts | 280° |
| 2026-04-23 06:09 | 53.00743 | 2.45431 | 36514 ft | 475 kts | 280° |
| 2026-04-23 06:10 | 53.02105 | 2.34690 | 36519 ft | 475 kts | 280° |
| 2026-04-23 06:10 | 53.03441 | 2.23949 | 36516 ft | 475 kts | 280° |
| 2026-04-23 06:11 | 53.04767 | 2.13211 | 36515 ft | 474 kts | 280° |
| 2026-04-23 06:11 | 53.06088 | 2.02556 | 36529 ft | 474 kts | 281° |
| 2026-04-23 06:12 | 53.07405 | 1.91830 | 36531 ft | 472 kts | 280° |
| 2026-04-23 06:12 | 53.09347 | 1.75809 | 36533 ft | 471 kts | 280° |
| 2026-04-23 06:13 | 53.10627 | 1.65128 | 36529 ft | 471 kts | 280° |
| 2026-04-23 06:13 | 53.11890 | 1.54519 | 36529 ft | 470 kts | 280° |
| 2026-04-23 06:14 | 53.13143 | 1.43856 | 36541 ft | 469 kts | 280° |
| 2026-04-23 06:14 | 53.14387 | 1.33214 | 36547 ft | 467 kts | 281° |
| 2026-04-23 06:15 | 53.15622 | 1.22618 | 36541 ft | 466 kts | 281° |
| 2026-04-23 06:15 | 53.16837 | 1.12106 | 36537 ft | 465 kts | 281° |
| 2026-04-23 06:16 | 53.18051 | 1.01535 | 36535 ft | 464 kts | 281° |
| 2026-04-23 06:16 | 53.19242 | 0.90984 | 36544 ft | 462 kts | 281° |
| 2026-04-23 06:17 | 53.20422 | 0.80476 | 36543 ft | 460 kts | 281° |
| 2026-04-23 06:17 | 53.21594 | 0.69988 | 36541 ft | 459 kts | 281° |
| 2026-04-23 06:18 | 53.22742 | 0.59590 | 36538 ft | 458 kts | 281° |
| 2026-04-23 06:18 | 53.23886 | 0.49135 | 36526 ft | 458 kts | 281° |
| 2026-04-23 06:19 | 53.25014 | 0.38702 | 36537 ft | 455 kts | 281° |
| 2026-04-23 06:19 | 53.26135 | 0.28310 | 36534 ft | 454 kts | 281° |
| 2026-04-23 06:20 | 53.27239 | 0.17997 | 36532 ft | 454 kts | 281° |
| 2026-04-23 06:20 | 53.28339 | 0.07617 | 36531 ft | 454 kts | 281° |
| 2026-04-23 06:21 | 53.29431 | -0.02764 | 36524 ft | 453 kts | 281° |
| 2026-04-23 06:21 | 53.30500 | -0.13101 | 36543 ft | 450 kts | 281° |
| 2026-04-23 06:22 | 53.31551 | -0.23334 | 36545 ft | 449 kts | 281° |
| 2026-04-23 06:22 | 53.32601 | -0.33602 | 36542 ft | 447 kts | 281° |
| 2026-04-23 06:23 | 53.33643 | -0.43857 | 36540 ft | 447 kts | 281° |
| 2026-04-23 06:23 | 53.34676 | -0.54102 | 36537 ft | 446 kts | 281° |
| 2026-04-23 06:24 | 53.35690 | -0.64344 | 36537 ft | 446 kts | 281° |
| 2026-04-23 06:24 | 53.36693 | -0.74526 | 36539 ft | 446 kts | 281° |
| 2026-04-23 06:25 | 53.37696 | -0.84779 | 36539 ft | 446 kts | 281° |
| 2026-04-23 06:25 | 53.38690 | -0.95039 | 36543 ft | 446 kts | 281° |
| 2026-04-23 06:26 | 53.39671 | -1.05300 | 36532 ft | 445 kts | 281° |
| 2026-04-23 06:26 | 53.40640 | -1.15511 | 36553 ft | 443 kts | 281° |
| 2026-04-23 06:27 | 53.41596 | -1.25611 | 36555 ft | 441 kts | 281° |
| 2026-04-23 06:27 | 53.42541 | -1.35751 | 36552 ft | 440 kts | 281° |
| 2026-04-23 06:28 | 53.43469 | -1.45878 | 36549 ft | 439 kts | 281° |
| 2026-04-23 06:28 | 53.44396 | -1.55996 | 36539 ft | 438 kts | 281° |
| 2026-04-23 06:29 | 53.45305 | -1.66026 | 36539 ft | 437 kts | 281° |
| 2026-04-23 06:29 | 53.46206 | -1.76107 | 36542 ft | 437 kts | 281° |
| 2026-04-23 06:30 | 53.47103 | -1.86183 | 36528 ft | 436 kts | 281° |
| 2026-04-23 06:30 | 53.47994 | -1.96255 | 36523 ft | 436 kts | 281° |
| 2026-04-23 06:31 | 53.48859 | -2.06248 | 36521 ft | 436 kts | 280° |
| 2026-04-23 06:31 | 53.49721 | -2.16311 | 36501 ft | 435 kts | 280° |
| 2026-04-23 06:32 | 53.50575 | -2.26366 | 36502 ft | 435 kts | 280° |
| 2026-04-23 06:32 | 53.51424 | -2.36428 | 36494 ft | 435 kts | 280° |
| 2026-04-23 06:33 | 53.52266 | -2.46502 | 36506 ft | 435 kts | 280° |
| 2026-04-23 06:33 | 53.53098 | -2.56509 | 36502 ft | 435 kts | 279° |
| 2026-04-23 06:34 | 53.53921 | -2.66580 | 36501 ft | 435 kts | 279° |
| 2026-04-23 06:34 | 53.54738 | -2.76651 | 36495 ft | 434 kts | 279° |
| 2026-04-23 06:35 | 53.55545 | -2.86716 | 36499 ft | 434 kts | 279° |
| 2026-04-23 06:35 | 53.56333 | -2.96699 | 36497 ft | 433 kts | 279° |
| 2026-04-23 06:36 | 53.57119 | -3.06746 | 36511 ft | 433 kts | 279° |
| 2026-04-23 06:36 | 53.57893 | -3.16775 | 36506 ft | 432 kts | 278° |
| 2026-04-23 06:37 | 53.58656 | -3.26774 | 36511 ft | 430 kts | 278° |
| 2026-04-23 06:37 | 53.59408 | -3.36685 | 36513 ft | 429 kts | 278° |
| 2026-04-23 06:38 | 53.60153 | -3.46647 | 36502 ft | 429 kts | 278° |
| 2026-04-23 06:38 | 53.60896 | -3.56611 | 36488 ft | 429 kts | 278° |
| 2026-04-23 06:39 | 53.61802 | -3.66516 | 36475 ft | 427 kts | 286° |
| 2026-04-23 06:39 | 53.63873 | -3.75810 | 36475 ft | 426 kts | 293° |
| 2026-04-23 06:40 | 53.66097 | -3.85069 | 36473 ft | 427 kts | 292° |
| 2026-04-23 06:40 | 53.68309 | -3.94366 | 36483 ft | 427 kts | 293° |
| 2026-04-23 06:41 | 53.70501 | -4.03636 | 36501 ft | 424 kts | 292° |
| 2026-04-23 06:41 | 53.71839 | -4.13217 | 36490 ft | 425 kts | 274° |
| 2026-04-23 06:42 | 53.72200 | -4.23170 | 36458 ft | 426 kts | 274° |
| 2026-04-23 06:42 | 53.72584 | -4.33181 | 35371 ft | 433 kts | 275° |
| 2026-04-23 06:43 | 53.72773 | -4.38295 | 34153 ft | 440 kts | 275° |
| 2026-04-23 06:43 | 53.72962 | -4.43470 | 32930 ft | 444 kts | 274° |
| 2026-04-23 06:43 | 53.73155 | -4.48710 | 31681 ft | 449 kts | 274° |
| 2026-04-23 06:43 | 53.73349 | -4.53984 | 30592 ft | 451 kts | 273° |
| 2026-04-23 06:44 | 53.73538 | -4.59204 | 29274 ft | 453 kts | 272° |
| 2026-04-23 06:44 | 53.73723 | -4.64529 | 28216 ft | 453 kts | 272° |
| 2026-04-23 06:44 | 53.73896 | -4.69762 | 27661 ft | 441 kts | 271° |
| 2026-04-23 06:44 | 53.74061 | -4.74912 | 26914 ft | 437 kts | 271° |
| 2026-04-23 06:45 | 53.74226 | -4.80006 | 26201 ft | 433 kts | 271° |
| 2026-04-23 06:45 | 53.74392 | -4.85057 | 25506 ft | 429 kts | 272° |
| 2026-04-23 06:45 | 53.74558 | -4.90080 | 24817 ft | 427 kts | 272° |
| 2026-04-23 06:45 | 53.74720 | -4.95068 | 24144 ft | 424 kts | 271° |
| 2026-04-23 06:46 | 53.74877 | -4.99971 | 23403 ft | 422 kts | 271° |
| 2026-04-23 06:46 | 53.75032 | -5.04892 | 22748 ft | 418 kts | 270° |
| 2026-04-23 06:46 | 53.75167 | -5.09774 | 22147 ft | 413 kts | 268° |
| 2026-04-23 06:46 | 53.74952 | -5.14574 | 21559 ft | 407 kts | 258° |
| 2026-04-23 06:47 | 53.74277 | -5.19168 | 21012 ft | 401 kts | 250° |
| 2026-04-23 06:47 | 53.73378 | -5.23597 | 20484 ft | 397 kts | 248° |
| 2026-04-23 06:47 | 53.72499 | -5.27943 | 19963 ft | 393 kts | 248° |
| 2026-04-23 06:47 | 53.71609 | -5.32334 | 19459 ft | 389 kts | 248° |
| 2026-04-23 06:48 | 53.70748 | -5.36572 | 18974 ft | 385 kts | 249° |
| 2026-04-23 06:48 | 53.69880 | -5.40829 | 18439 ft | 382 kts | 249° |
| 2026-04-23 06:48 | 53.69019 | -5.45049 | 17931 ft | 378 kts | 249° |
| 2026-04-23 06:48 | 53.68171 | -5.49215 | 17414 ft | 374 kts | 251° |
| 2026-04-23 06:49 | 53.67545 | -5.53460 | 16909 ft | 371 kts | 255° |
| 2026-04-23 06:49 | 53.66994 | -5.57693 | 16373 ft | 369 kts | 256° |
| 2026-04-23 06:49 | 53.66445 | -5.61907 | 15839 ft | 367 kts | 256° |
| 2026-04-23 06:49 | 53.65897 | -5.66095 | 15295 ft | 365 kts | 257° |
| 2026-04-23 06:50 | 53.65350 | -5.70263 | 14757 ft | 364 kts | 256° |
| 2026-04-23 06:50 | 53.64810 | -5.74365 | 14215 ft | 363 kts | 256° |
| 2026-04-23 06:50 | 53.64263 | -5.78504 | 13626 ft | 361 kts | 256° |
| 2026-04-23 06:50 | 53.63719 | -5.82610 | 13078 ft | 357 kts | 255° |
| 2026-04-23 06:51 | 53.63181 | -5.86676 | 12524 ft | 354 kts | 256° |
| 2026-04-23 06:51 | 53.62644 | -5.90710 | 11968 ft | 351 kts | 256° |
| 2026-04-23 06:51 | 53.62110 | -5.94706 | 11407 ft | 348 kts | 253° |
| 2026-04-23 06:51 | 53.61581 | -5.98661 | 10843 ft | 345 kts | 255° |
| 2026-04-23 06:52 | 53.61061 | -6.02546 | 10631 ft | 332 kts | 255° |
| 2026-04-23 06:52 | 53.60567 | -6.06206 | 10500 ft | 318 kts | 253° |
| 2026-04-23 06:52 | 53.60087 | -6.09753 | 10387 ft | 304 kts | 255° |
| 2026-04-23 06:52 | 53.59624 | -6.13153 | 10253 ft | 292 kts | 253° |
| 2026-04-23 06:53 | 53.59176 | -6.16450 | 9997 ft | 287 kts | 252° |
| 2026-04-23 06:53 | 53.58729 | -6.19704 | 9841 ft | 286 kts | 253° |
| 2026-04-23 06:53 | 53.58278 | -6.22967 | 9575 ft | 288 kts | 254° |
| 2026-04-23 06:53 | 53.57818 | -6.26309 | 8976 ft | 293 kts | 254° |
| 2026-04-23 06:54 | 53.57372 | -6.29579 | 8611 ft | 278 kts | 253° |
| 2026-04-23 06:54 | 53.56993 | -6.32618 | 8352 ft | 263 kts | 261° |
| 2026-04-23 06:54 | 53.57152 | -6.35658 | 8023 ft | 263 kts | 285° |
| 2026-04-23 06:54 | 53.58012 | -6.38340 | 8006 ft | 264 kts | 309° |
| 2026-04-23 06:55 | 53.59439 | -6.40284 | 8015 ft | 266 kts | 331° |
| 2026-04-23 06:55 | 53.61040 | -6.41812 | 7805 ft | 263 kts | 324° |
| 2026-04-23 06:55 | 53.62223 | -6.44085 | 7425 ft | 258 kts | 292° |
| 2026-04-23 06:55 | 53.62670 | -6.46948 | 7038 ft | 251 kts | 266° |
| 2026-04-23 06:56 | 53.62385 | -6.49783 | 6666 ft | 242 kts | 242° |
| 2026-04-23 06:56 | 53.61496 | -6.52109 | 6396 ft | 236 kts | 224° |
| 2026-04-23 06:56 | 53.60452 | -6.54204 | 6108 ft | 237 kts | 224° |
| 2026-04-23 06:56 | 53.59400 | -6.56319 | 5895 ft | 237 kts | 225° |
| 2026-04-23 06:57 | 53.58343 | -6.58449 | 5690 ft | 238 kts | 225° |
| 2026-04-23 06:57 | 53.57281 | -6.60593 | 5490 ft | 238 kts | 225° |
| 2026-04-23 06:57 | 53.56192 | -6.62669 | 5197 ft | 233 kts | 214° |
| 2026-04-23 06:57 | 53.54837 | -6.64061 | 4816 ft | 226 kts | 200° |
| 2026-04-23 06:58 | 53.53457 | -6.65351 | 4491 ft | 227 kts | 205° |
| 2026-04-23 06:58 | 53.52088 | -6.66558 | 4359 ft | 217 kts | 197° |
| 2026-04-23 06:58 | 53.50709 | -6.67275 | 4230 ft | 204 kts | 186° |
| 2026-04-23 06:58 | 53.49336 | -6.67585 | 4117 ft | 194 kts | 181° |
| 2026-04-23 06:59 | 53.48027 | -6.67810 | 4120 ft | 186 kts | 180° |
| 2026-04-23 06:59 | 53.46771 | -6.67669 | 4116 ft | 179 kts | 153° |
| 2026-04-23 06:59 | 53.45867 | -6.66303 | 4096 ft | 179 kts | 118° |
| 2026-04-23 06:59 | 53.45644 | -6.64237 | 3977 ft | 184 kts | 96° |
| 2026-04-23 07:00 | 53.45536 | -6.62108 | 3851 ft | 183 kts | 99° |
| 2026-04-23 07:00 | 53.45416 | -6.59986 | 3732 ft | 183 kts | 99° |
| 2026-04-23 07:00 | 53.45304 | -6.57892 | 3619 ft | 182 kts | 99° |
| 2026-04-23 07:00 | 53.45192 | -6.55767 | 3536 ft | 183 kts | 99° |
| 2026-04-23 07:01 | 53.45082 | -6.53664 | 3318 ft | 178 kts | 99° |
| 2026-04-23 07:01 | 53.44976 | -6.51626 | 3080 ft | 173 kts | 99° |
| 2026-04-23 07:01 | 53.44871 | -6.49633 | 2853 ft | 170 kts | 99° |
| 2026-04-23 07:01 | 53.44767 | -6.47670 | 2609 ft | 168 kts | 99° |
| 2026-04-23 07:02 | 53.44665 | -6.45732 | 2390 ft | 164 kts | 99° |
| 2026-04-23 07:02 | 53.44567 | -6.43880 | 2171 ft | 154 kts | 99° |
| 2026-04-23 07:02 | 53.44478 | -6.42193 | 1952 ft | 140 kts | 99° |
| 2026-04-23 07:02 | 53.44395 | -6.40635 | 1795 ft | 130 kts | 99° |
| 2026-04-23 07:03 | 53.44315 | -6.39150 | 1623 ft | 126 kts | 97° |
| 2026-04-23 07:03 | 53.44236 | -6.37695 | 1459 ft | 125 kts | 97° |
| 2026-04-23 07:03 | 53.44158 | -6.36248 | 1265 ft | 124 kts | 98° |
| 2026-04-23 07:03 | 53.44081 | -6.34806 | 1094 ft | 124 kts | 96° |
| 2026-04-23 07:04 | 53.44003 | -6.33371 | 922 ft | 124 kts | 96° |
| 2026-04-23 07:04 | 53.43925 | -6.31936 | 750 ft | 124 kts | 95° |
| 2026-04-23 07:04 | 53.43848 | -6.30498 | 576 ft | 124 kts | 94° |
| 2026-04-23 07:04 | 53.43771 | -6.29083 | 420 ft | 123 kts | 93° |
| 2026-04-23 07:05 | 53.43692 | -6.27656 | 221 ft | 121 kts | 93° |
| 2026-04-23 07:05 | 53.43632 | -6.26463 | 212 ft | 79 kts | 94° |
| 2026-04-23 07:05 | 53.43597 | -6.25845 | 211 ft | 16 kts | 94° |
| 2026-04-23 07:05 | 53.43582 | -6.25815 | 214 ft | 4 kts | 155° |
| 2026-04-23 07:06 | 53.43522 | -6.25769 | 210 ft | 12 kts | 155° |
| 2026-04-23 07:06 | 53.43476 | -6.25736 | 212 ft | 6 kts | 158° |
| 2026-04-23 07:06 | 53.43444 | -6.25713 | 211 ft | 5 kts | 158° |
| 2026-04-23 07:06 | 53.43416 | -6.25694 | 212 ft | 4 kts | 157° |
| 2026-04-23 07:07 | 53.43393 | -6.25678 | 211 ft | 3 kts | 157° |
| 2026-04-23 07:07 | 53.43388 | -6.25674 | 211 ft | 0 kts | 157° |
| 2026-04-23 07:07 | 53.43347 | -6.25643 | 212 ft | 9 kts | 155° |
| 2026-04-23 07:08 | 53.43318 | -6.25621 | 212 ft | 0 kts | 154° |
| 2026-04-23 07:08 | 53.43295 | -6.25605 | 215 ft | 8 kts | 159° |
| 2026-04-23 07:08 | 53.43237 | -6.25565 | 214 ft | 12 kts | 157° |
| 2026-04-23 07:08 | 53.43200 | -6.25469 | 218 ft | 10 kts | 58° |
| 2026-04-23 07:09 | 53.43239 | -6.25354 | 211 ft | 13 kts | 67° |
| 2026-04-23 07:09 | 53.43249 | -6.25211 | 211 ft | 11 kts | 93° |
| 2026-04-23 07:09 | 53.43252 | -6.25139 | 211 ft | 5 kts | 56° |
| 2026-04-23 07:09 | 53.43277 | -6.25127 | 211 ft | 2 kts | 2° |
| 2026-04-23 07:10 | 53.43293 | -6.25125 | 215 ft | 2 kts | 4° |
| 2026-04-23 07:10 | 53.43299 | -6.25124 | 213 ft | 0 kts | 5° |